Flight Track Log - Related Links

Times and Time Zones

All times are in EDT time to prevent confusion due to time zone crossing. See the GJS3698 flight status page for this flight to view local times or setup timezone preferences in your user account.

Time Position Orientation Groundspeed Altitude Reporting Facility
EDT Latitude Longitude Course Direction KTS MPH feet Rate Location/Type
Fri 08:21:10 PM 39.8667 -75.2833 237° Southwest 164 189 1,000  Level Philadelphia TRACON
Fri 08:21:52 PM 39.8500 -75.3167 237° Southwest 182 209 2,900 2,353 Climbing Philadelphia TRACON
Fri 08:22:52 PM 39.8500 -75.4000 270° West 225 259 5,000 2,200 Climbing Philadelphia TRACON
Fri 08:23:52 PM 39.9167 -75.4333 339° North 256 295 7,300 2,234 Climbing Philadelphia TRACON
Fri 08:24:26 PM 39.9583 -75.4478 345° North 279 321 8,500 2,147 Climbing New York Center
Fri 08:25:27 PM 40.0278 -75.4822 339° North 309 356 10,700 1,714 Climbing New York Center
Fri 08:26:25 PM 40.1181 -75.5183 343° North 333 383 11,900 1,563 Climbing New York Center
Fri 08:27:26 PM 40.2183 -75.5658 340° North 368 423 13,800 1,820 Climbing New York Center
Fri 08:28:27 PM 40.2914 -75.6636 314° West 362 417 15,600 1,820 Climbing New York Center
Fri 08:29:28 PM 40.3600 -75.7636 312° West 368 423 17,500 1,650 Climbing New York Center
Fri 08:30:27 PM 40.4206 -75.8581 310° West 373 429 18,900 1,513 Climbing New York Center
Fri 08:31:27 PM 40.4547 -75.9833 290° West 365 420 20,500 1,686 Climbing New York Center
Fri 08:32:28 PM 40.4742 -76.1078 282° West 359 413 22,300 1,686 Climbing New York Center
Fri 08:33:28 PM 40.4933 -76.2375 281° West 354 407 23,900 1,627 Climbing New York Center
Fri 08:34:26 PM 40.5147 -76.3619 283° West 359 413 25,500 1,520 Climbing New York Center
Fri 08:35:58 PM 40.5497 -76.5608 283° West 350 403 27,700 1,247 Climbing Cleveland Center
Fri 08:37:00 PM 40.5628 -76.6850 278° West 349 402 28,700 968 Climbing Cleveland Center
Fri 08:38:02 PM 40.5733 -76.8086 276° West 344 396 29,700 919 Climbing Cleveland Center
Fri 08:39:04 PM 40.5839 -76.9331 276° West 344 396 30,600 823 Climbing Cleveland Center
Fri 08:40:06 PM 40.5950 -77.0589 277° West 346 398 31,400 732 Climbing Cleveland Center
Fri 08:41:07 PM 40.6086 -77.2117 277° West 350 403 32,100 634 Climbing Cleveland Center
Fri 08:42:09 PM 40.6197 -77.3419 276° West 356 410 32,700 581 Climbing Cleveland Center
Fri 08:43:11 PM 40.6294 -77.4717 276° West 358 412 33,300 581 Climbing Cleveland Center
Fri 08:44:13 PM 40.6400 -77.6044 276° West 361 415 33,900 339 Climbing Cleveland Center
Fri 08:45:15 PM 40.6500 -77.7342 276° West 361 415 34,000 48 Climbing Cleveland Center
Fri 08:46:17 PM 40.6642 -77.8650 278° West 361 415 34,000  Level Cleveland Center
Fri 08:47:19 PM 40.6867 -78.0208 281° West 362 417 34,000  Level Cleveland Center
Fri 08:48:21 PM 40.7053 -78.1508 281° West 362 417 34,000  Level Cleveland Center
Fri 08:49:23 PM 40.7231 -78.2811 280° West 362 417 34,000  Level Cleveland Center
Fri 08:50:25 PM 40.7408 -78.4136 280° West 363 418 34,000  Level Cleveland Center
Fri 08:51:27 PM 40.7586 -78.5486 280° West 369 425 34,000  Level Cleveland Center
Fri 08:52:29 PM 40.7781 -78.6858 281° West 374 430 34,000  Level Cleveland Center
Fri 08:53:31 PM 40.7992 -78.8519 280° West 379 436 34,000  Level Cleveland Center
Fri 08:54:33 PM 40.8158 -78.9725 280° West 382 440 34,000  Level Cleveland Center
Fri 08:55:35 PM 40.8339 -79.1122 280° West 386 444 34,000  Level Cleveland Center
Fri 08:56:37 PM 40.8558 -79.2811 280° West 389 448 34,000  Level Cleveland Center
Fri 08:57:39 PM 40.8742 -79.4219 280° West 390 449 34,000  Level Cleveland Center
Fri 08:58:40 PM 40.8914 -79.5647 279° West 392 451 34,000  Level Cleveland Center
Fri 08:59:42 PM 40.9094 -79.7075 280° West 394 453 34,000  Level Cleveland Center
Fri 09:00:44 PM 40.9272 -79.8519 279° West 398 458 34,000  Level Cleveland Center
Fri 09:01:46 PM 40.9483 -80.0267 279° West 401 461 34,000  Level Cleveland Center
Fri 09:02:48 PM 40.9656 -80.1703 279° West 400 460 34,000  Level Cleveland Center
Fri 09:03:50 PM 40.9831 -80.3133 279° West 399 459 34,000  Level Cleveland Center
Fri 09:04:52 PM 41.0006 -80.4589 279° West 401 461 34,000  Level Cleveland Center
Fri 09:05:53 PM 41.0178 -80.6047 279° West 401 461 34,000  Level Cleveland Center
Fri 09:06:55 PM 41.0344 -80.7506 279° West 402 463 34,000  Level Cleveland Center
Fri 09:07:57 PM 41.0531 -80.9281 278° West 404 465 34,000  Level Cleveland Center
Fri 09:08:59 PM 41.0608 -81.0697 274° West 406 467 34,000  Level Cleveland Center
Fri 09:10:01 PM 41.0703 -81.2222 275° West 409 471 34,000  Level Cleveland Center
Fri 09:11:02 PM 41.0797 -81.3739 275° West 410 472 34,000  Level Cleveland Center
Fri 09:12:04 PM 41.0889 -81.5308 274° West 414 476 34,000  Level Cleveland Center
Fri 09:13:06 PM 41.0975 -81.6875 274° West 416 479 34,000  Level Cleveland Center
Fri 09:14:08 PM 41.1081 -81.8456 275° West 418 481 34,000  Level Cleveland Center
Fri 09:15:09 PM 41.1169 -82.0036 274° West 419 482 34,000  Level Cleveland Center
Fri 09:16:11 PM 41.1264 -82.1889 274° West 422 486 34,000  Level Cleveland Center
Fri 09:17:13 PM 41.1358 -82.3453 275° West 423 487 34,000  Level Cleveland Center
Fri 09:18:14 PM 41.1436 -82.5028 274° West 423 487 34,000  Level Cleveland Center
Fri 09:19:16 PM 41.1525 -82.6619 274° West 424 488 34,000  Level Cleveland Center
Fri 09:20:18 PM 41.1600 -82.8219 274° West 429 494 34,000  Level Cleveland Center
Fri 09:21:19 PM 41.1683 -82.9811 274° West 429 494 34,000  Level Cleveland Center
Fri 09:22:21 PM 41.1761 -83.1414 274° West 429 494 34,000  Level Cleveland Center
Fri 09:23:22 PM 41.1839 -83.2958 274° West 429 494 34,000  Level Cleveland Center
Fri 09:24:24 PM 41.1908 -83.4539 273° West 429 494 34,000  Level Cleveland Center
Fri 09:25:25 PM 41.1978 -83.6114 273° West 426 490 34,000  Level Cleveland Center
Fri 09:26:27 PM 41.2047 -83.7700 273° West 428 493 34,000  Level Cleveland Center
Fri 09:27:28 PM 41.2122 -83.9567 273° West 430 495 34,000  Level Cleveland Center
Fri 09:28:30 PM 41.2194 -84.1169 273° West 431 496 34,000  Level Cleveland Center
Fri 09:29:31 PM 41.2253 -84.2728 273° West 429 494 34,000  Level Cleveland Center
Fri 09:30:33 PM 41.2294 -84.4311 272° West 428 493 34,000  Level Cleveland Center
Fri 09:31:34 PM 41.2331 -84.5864 272° West 426 490 34,000  Level Cleveland Center
Fri 09:32:06 PM 41.2361 -84.6794 273° West 424 488 34,000  Level Chicago Center
Fri 09:33:08 PM 41.2419 -84.8344 273° West 423 487 34,000  Level Chicago Center
Fri 09:34:10 PM 41.2486 -84.9903 273° West 423 487 34,000 -435 Level Chicago Center
Fri 09:35:12 PM 41.2550 -85.1461 273° West 423 487 33,100 -1,268 Descending Chicago Center
Fri 09:36:13 PM 41.2597 -85.3067 272° West 427 491 31,400 -1,707 Descending Chicago Center
Fri 09:37:15 PM 41.2650 -85.4725 272° West 439 505 29,600 -1,935 Descending Chicago Center
Fri 09:38:17 PM 41.2722 -85.6661 273° West 435 501 27,400 -1,887 Descending Chicago Center
Fri 09:39:19 PM 41.2772 -85.8197 273° West 418 481 25,700 -1,171 Descending Chicago Center
Fri 09:40:20 PM 41.2808 -85.9747 272° West 417 480 25,000 -341 Descending Chicago Center
Fri 09:41:22 PM 41.3025 -86.1253 281° West 413 475 25,000 -195 Level Chicago Center
Fri 09:42:23 PM 41.3328 -86.2728 285° West 412 474 24,600 -1,317 Descending Chicago Center
Fri 09:43:25 PM 41.3628 -86.4119 286° West 392 451 22,300 -2,195 Descending Chicago Center
Fri 09:44:26 PM 41.3919 -86.5511 286° West 390 449 20,100 -2,195 Descending Chicago Center
Fri 09:45:28 PM 41.4192 -86.6853 285° West 380 437 17,800 -2,244 Descending Chicago Center
Fri 09:46:29 PM 41.4525 -86.8350 287° West 357 411 15,500 -2,000 Descending Chicago Center
Fri 09:47:31 PM 41.4775 -86.9583 285° West 345 397 13,700 -1,854 Descending Chicago Center
Fri 09:48:32 PM 41.5033 -87.0900 285° West 339 390 11,700 -1,279 Descending Chicago Center
Fri 09:49:33 PM 41.5403 -87.1981 295° West 323 372 11,100 -585 Descending Chicago Center
Fri 09:50:35 PM 41.6092 -87.2658 324° Northwest 309 356 10,500 -976 Descending Chicago Center
Fri 09:51:36 PM 41.6794 -87.3153 332° Northwest 270 311 9,100 -1,171 Descending Chicago Center
Fri 09:52:38 PM 41.7408 -87.3611 331° Northwest 255 293 8,100 -488 Descending Chicago Center
Fri 09:53:39 PM 41.8017 -87.4058 331° Northwest 253 291 8,100  Level Chicago Center
Fri 09:54:40 PM 41.8617 -87.4497 331° Northwest 225 259 8,100  Level Chicago Center
Fri 09:55:42 PM 41.9147 -87.4722 342° North 213 245 8,100 -829 Level Chicago Center
Fri 09:56:43 PM 41.9747 -87.4667 North 216 249 6,400 -1,426 Descending Chicago Center
Fri 09:57:44 PM 41.9758 -87.5353 271° West 208 239 5,200 -1,279 Descending Chicago Center
Fri 09:58:45 PM 41.9656 -87.6108 260° West 193 222 3,800 -1,024 Descending Chicago Center
Fri 09:59:47 PM 41.9658 -87.6608 270° West 140 161 3,100 -341 Descending Chicago Center
Fri 10:00:48 PM 41.9650 -87.7058 269° West 127 146 3,100 -148 Level Chicago Center
Fri 10:01:49 PM 41.9653 -87.7558 270° West 126 145 2,800 -541 Descending Chicago Center
Fri 10:02:50 PM 41.9653 -87.8031 270° West 126 145 2,000 -732 Descending Chicago Center
Fri 10:03:52 PM 41.9647 -87.8508 269° West 126 145 1,300 -634 Descending Chicago Center
Fri 10:04:53 PM 41.9647 -87.9019 270° West 127 146 700 -590 Descending Chicago Center
Fri 10:06:00 PM 41.9667 -87.9000 270° West  Level FlightAware Approximate

Login

Don't have an account? Register now (free) for customized features, flight alerts, and more!